Mentor on the Lake, Ohio
Current Conditions -  °F | °C
As of 3:45 PM on Tuesday 21 Oct 2014 (Local Time) from KCGF Reporting Station
Light Rain Light Rain  
Wind Chill: 50°   Ceiling: 1200
Heat Index: 50°   Visibility: 7mi
Dew Point: 46°   Wind: 13mph
Humidity: 87%   Direction: 340°NNW
Pressure: 29.97"   Gusts: 21mph
Location:  41.6763°N, 81.3297°W
Report Text: KCGF 211945Z 34011G18KT 7SM -RA FEW009 BKN012 OVC020 10/08 A2997
Loading
Personal Weather Stations






























Interactive Weather Map
Tropical Storm Tracking
New forecast layout! Learn more

10-Day Weather Forecast

Advertisements
Track Severe Weather on mobile